| time (UTC) | temp F | wind direction | speed knots | gust knots | rain 1hr in | rain 24hr in | rain mn in | humidity % | barometer mb |
| 20260508022619 | 40 | 0 | 0.0 | 0.0 | 0.00 | 0.00 | 0.00 | 90 | 1011.7 |
| 20260508021419 | 41 | 0 | 0.0 | 0.0 | 0.00 | 0.00 | 0.00 | 90 | 1011.7 |
| 20260508020219 | 41 | 0 | 0.0 | 0.0 | 0.00 | 0.00 | 0.00 | 90 | 1011.7 |
| 20260508015020 | 41 | 0 | 0.0 | 0.0 | 0.00 | 0.00 | 0.00 | 89 | 1011.7 |
| 20260508013820 | 42 | 0 | 0.0 | 0.0 | 0.00 | 0.00 | 0.00 | 89 | 1011.7 |
| 20260508012620 | 42 | 0 | 0.0 | 0.0 | 0.00 | 0.00 | 0.00 | 89 | 1011.6 |
| 20260508011420 | 43 | 0 | 0.0 | 0.0 | 0.00 | 0.00 | 0.00 | 88 | 1011.4 |
| 20260508010220 | 43 | 0 | 0.0 | 0.0 | 0.00 | 0.00 | 0.00 | 88 | 1011.2 |
| 20260508005020 | 44 | 0 | 0.0 | 0.0 | 0.00 | 0.00 | 0.00 | 86 | 1011.1 |
| 20260508003820 | 45 | 0 | 0.0 | 0.0 | 0.00 | 0.00 | 0.00 | 86 | 1011.1 |
| 20260508002619 | 45 | 0 | 0.0 | 0.0 | 0.00 | 0.00 | 0.00 | 85 | 1011.2 |
| 20260508001420 | 46 | 0 | 0.0 | 0.0 | 0.00 | 0.00 | 0.00 | 85 | 1011.0 |
| 20260507235431 | 46 | 0 | 0.0 | 0.0 | 0.00 | 0.00 | 0.00 | 85 | 1010.9 |
| 20260507234231 | 46 | 0 | 0.0 | 0.0 | 0.00 | 0.00 | 0.00 | 85 | 1010.9 |
| 20260507233031 | 46 | 0 | 0.0 | 0.0 | 0.00 | 0.00 | 0.00 | 83 | 1011.0 |
| 20260507231831 | 46 | 0 | 0.0 | 0.9 | 0.00 | 0.00 | 0.00 | 82 | 1011.0 |
| 20260507230631 | 47 | 0 | 0.0 | 2.6 | 0.00 | 0.00 | 0.00 | 81 | 1011.2 |
| 20260507225431 | 48 | 0 | 0.0 | 1.7 | 0.00 | 0.00 | 0.00 | 80 | 1010.9 |
| 20260507224231 | 48 | 0 | 0.0 | 0.9 | 0.00 | 0.00 | 0.00 | 78 | 1010.8 |
| 20260507223031 | 49 | 0 | 0.0 | 3.5 | 0.00 | 0.00 | 0.00 | 73 | 1010.8 |
| 20260507221832 | 50 | 0 | 0.0 | 1.7 | 0.00 | 0.00 | 0.00 | 70 | 1010.8 |
| 20260507220631 | 50 | 259 | 0.9 | 4.3 | 0.00 | 0.00 | 0.00 | 65 | 1010.6 |
| 20260507215431 | 51 | 0 | 0.0 | 4.3 | 0.00 | 0.00 | 0.00 | 61 | 1010.5 |
| 20260507214231 | 51 | 243 | 0.9 | 5.2 | 0.00 | 0.00 | 0.00 | 58 | 1010.5 |
| 20260507213031 | 52 | 0 | 0.0 | 5.2 | 0.00 | 0.00 | 0.00 | 55 | 1010.3 |
| 20260507211831 | 53 | 216 | 0.9 | 5.2 | 0.00 | 0.00 | 0.00 | 55 | 1010.2 |
| 20260507210631 | 54 | 239 | 0.9 | 6.1 | 0.00 | 0.00 | 0.00 | 54 | 1010.0 |
| 20260507205431 | 54 | 227 | 0.9 | 7.0 | 0.00 | 0.00 | 0.00 | 56 | 1010.1 |
| 20260507204231 | 54 | 223 | 0.9 | 6.1 | 0.00 | 0.00 | 0.00 | 53 | 1009.9 |
| 20260507203031 | 54 | 334 | 1.7 | 4.3 | 0.00 | 0.00 | 0.00 | 53 | 1009.9 |
| 20260507201830 | 54 | 5 | 0.9 | 4.3 | 0.00 | 0.00 | 0.00 | 54 | 1010.0 |
| 20260507200632 | 53 | 0 | 0.0 | 2.6 | 0.00 | 0.00 | 0.00 | 57 | 1010.1 |
| 20260507193726 | 54 | 227 | 1.7 | 4.3 | 0.00 | 0.00 | 0.00 | 55 | 1010.4 |
| 20260507192526 | 54 | 290 | 0.9 | 4.3 | 0.00 | 0.00 | 0.00 | 57 | 1010.4 |
| 20260507191326 | 54 | 0 | 0.0 | 4.3 | 0.00 | 0.00 | 0.00 | 56 | 1010.6 |
| 20260507190126 | 54 | 0 | 0.0 | 4.3 | 0.00 | 0.00 | 0.00 | 54 | 1010.5 |
| 20260507184927 | 53 | 0 | 0.0 | 3.5 | 0.00 | 0.00 | 0.00 | 54 | 1010.6 |
| 20260507183726 | 53 | 0 | 0.0 | 2.6 | 0.00 | 0.00 | 0.00 | 56 | 1010.6 |
| 20260507182527 | 53 | 219 | 0.9 | 6.1 | 0.00 | 0.00 | 0.00 | 58 | 1010.6 |
| 20260507181326 | 53 | 0 | 0.0 | 2.6 | 0.00 | 0.00 | 0.00 | 67 | 1010.7 |
| 20260507180126 | 51 | 0 | 0.0 | 2.6 | 0.00 | 0.00 | 0.00 | 78 | 1010.7 |
| 20260507174926 | 50 | 0 | 0.0 | 2.6 | 0.00 | 0.00 | 0.00 | 79 | 1010.8 |
| 20260507172701 | 50 | 0 | 0.0 | 1.7 | 0.00 | 0.00 | 0.00 | 76 | 1011.0 |
| 20260507171501 | 50 | 0 | 0.0 | 2.6 | 0.00 | 0.00 | 0.00 | 76 | 1011.0 |
| 20260507165657 | 52 | 0 | 0.0 | 1.7 | 0.00 | 0.00 | 0.00 | 72 | 1011.0 |
| 20260507164457 | 52 | 0 | 0.0 | 1.7 | 0.00 | 0.00 | 0.00 | 69 | 1011.2 |
| 20260507163257 | 53 | 0 | 0.0 | 3.5 | 0.00 | 0.00 | 0.00 | 67 | 1011.2 |
| 20260507162057 | 53 | 183 | 0.9 | 3.5 | 0.00 | 0.00 | 0.00 | 59 | 1011.3 |
| 20260507160857 | 52 | 0 | 0.0 | 1.7 | 0.00 | 0.00 | 0.00 | 62 | 1011.5 |
| 20260507155657 | 52 | 0 | 0.0 | 1.7 | 0.00 | 0.00 | 0.00 | 66 | 1011.5 |
| 20260507154457 | 52 | 0 | 0.0 | 3.5 | 0.00 | 0.00 | 0.00 | 67 | 1011.6 |
| 20260507153257 | 51 | 0 | 0.0 | 2.6 | 0.00 | 0.00 | 0.00 | 70 | 1011.7 |
| 20260507151547 | 51 | 0 | 0.0 | 6.1 | 0.00 | 0.00 | 0.00 | 72 | 1011.8 |
| 20260507150347 | 50 | 0 | 0.0 | 3.5 | 0.00 | 0.00 | 0.00 | 70 | 1011.8 |
| 20260507144556 | 50 | 0 | 0.0 | 2.6 | 0.00 | 0.00 | 0.00 | 71 | 1011.9 |
| 20260507143356 | 49 | 0 | 0.0 | 1.7 | 0.00 | 0.00 | 0.00 | 72 | 1012.0 |
| 20260507142156 | 49 | 0 | 0.0 | 1.7 | 0.00 | 0.00 | 0.00 | 73 | 1012.1 |
| 20260507140956 | 49 | 0 | 0.0 | 2.6 | 0.00 | 0.00 | 0.00 | 74 | 1012.0 |
| 20260507135756 | 48 | 0 | 0.0 | 2.6 | 0.00 | 0.00 | 0.00 | 76 | 1012.1 |
| 20260507134556 | 48 | 0 | 0.0 | 1.7 | 0.00 | 0.00 | 0.00 | 78 | 1012.2 |
| 20260507133356 | 47 | 0 | 0.0 | 0.9 | 0.00 | 0.00 | 0.00 | 79 | 1012.3 |
| 20260507132156 | 46 | 0 | 0.0 | 0.9 | 0.00 | 0.00 | 0.00 | 80 | 1012.3 |
| 20260507130955 | 46 | 0 | 0.0 | 0.9 | 0.00 | 0.00 | 0.00 | 81 | 1012.3 |
| 20260507125756 | 45 | 0 | 0.0 | 0.9 | 0.00 | 0.00 | 0.00 | 83 | 1012.2 |
| 20260507123152 | 42 | 0 | 0.0 | 0.0 | 0.00 | 0.01 | 0.00 | 86 | 1012.3 |
| 20260507121952 | 41 | 0 | 0.0 | 0.0 | 0.00 | 0.01 | 0.00 | 88 | 1012.3 |
| 20260507120752 | 40 | 0 | 0.0 | 1.7 | 0.00 | 0.01 | 0.00 | 89 | 1012.3 |
| 20260507114353 | 39 | 0 | 0.0 | 0.0 | 0.00 | 0.01 | 0.00 | 92 | 1012.3 |
| 20260507113152 | 38 | 0 | 0.0 | 0.0 | 0.00 | 0.01 | 0.00 | 92 | 1012.2 |
| 20260507111952 | 38 | 0 | 0.0 | 0.0 | 0.00 | 0.01 | 0.00 | 92 | 1012.1 |
| 20260507110752 | 37 | 0 | 0.0 | 0.0 | 0.00 | 0.01 | 0.00 | 91 | 1011.9 |
| 20260507105552 | 37 | 0 | 0.0 | 0.0 | 0.00 | 0.01 | 0.00 | 91 | 1011.9 |
| 20260507104353 | 37 | 0 | 0.0 | 0.0 | 0.00 | 0.01 | 0.00 | 91 | 1012.0 |
| 20260507103152 | 37 | 0 | 0.0 | 0.0 | 0.00 | 0.01 | 0.00 | 90 | 1012.0 |
| 20260507101952 | 38 | 0 | 0.0 | 0.0 | 0.00 | 0.01 | 0.00 | 90 | 1011.9 |
| 20260507100752 | 38 | 0 | 0.0 | 0.0 | 0.00 | 0.01 | 0.00 | 90 | 1011.8 |
| 20260507095552 | 38 | 0 | 0.0 | 0.0 | 0.00 | 0.01 | 0.00 | 90 | 1011.8 |
| 20260507094353 | 39 | 0 | 0.0 | 0.0 | 0.00 | 0.01 | 0.00 | 90 | 1011.9 |
| 20260507093152 | 39 | 0 | 0.0 | 0.0 | 0.00 | 0.01 | 0.00 | 90 | 1011.9 |
| 20260507091952 | 40 | 0 | 0.0 | 0.0 | 0.00 | 0.01 | 0.00 | 90 | 1011.9 |
| 20260507090752 | 39 | 0 | 0.0 | 0.0 | 0.00 | 0.01 | 0.00 | 91 | 1012.1 |
| 20260507085552 | 39 | 0 | 0.0 | 1.7 | 0.00 | 0.01 | 0.00 | 91 | 1012.0 |
| 20260507084352 | 39 | 0 | 0.0 | 0.9 | 0.00 | 0.01 | 0.00 | 91 | 1011.7 |
| 20260507083153 | 39 | 0 | 0.0 | 0.0 | 0.00 | 0.01 | 0.00 | 90 | 1011.6 |
| 20260507081952 | 40 | 0 | 0.0 | 0.0 | 0.00 | 0.01 | 0.00 | 90 | 1011.5 |
| 20260507080752 | 40 | 0 | 0.0 | 0.0 | 0.00 | 0.01 | 0.00 | 90 | 1011.5 |
| 20260507075553 | 40 | 0 | 0.0 | 0.0 | 0.00 | 0.01 | 0.00 | 90 | 1011.6 |
| 20260507074352 | 40 | 0 | 0.0 | 0.0 | 0.00 | 0.01 | 0.00 | 90 | 1011.5 |
| 20260507073152 | 40 | 0 | 0.0 | 0.0 | 0.00 | 0.01 | 0.00 | 90 | 1011.6 |
| 20260507071953 | 40 | 0 | 0.0 | 0.0 | 0.00 | 0.01 | 0.00 | 89 | 1011.7 |
| 20260507070752 | 40 | 0 | 0.0 | 0.0 | 0.00 | 0.01 | 0.00 | 89 | 1011.9 |
| 20260507065554 | 40 | 0 | 0.0 | 0.0 | 0.00 | 0.01 | 0.00 | 89 | 1011.9 |
| 20260507064353 | 40 | 0 | 0.0 | 0.0 | 0.00 | 0.01 | 0.00 | 88 | 1012.0 |
| 20260507062449 | 40 | 0 | 0.0 | 0.0 | 0.00 | 0.01 | 0.00 | 87 | 1012.0 |
| 20260507061250 | 41 | 0 | 0.0 | 0.0 | 0.00 | 0.01 | 0.00 | 86 | 1012.0 |
| 20260507060050 | 41 | 0 | 0.0 | 0.0 | 0.00 | 0.01 | 0.00 | 85 | 1012.1 |
| 20260507054849 | 41 | 0 | 0.0 | 0.0 | 0.00 | 0.01 | 0.00 | 84 | 1012.1 |
| 20260507053650 | 42 | 0 | 0.0 | 0.0 | 0.00 | 0.01 | 0.00 | 84 | 1012.4 |
| 20260507052450 | 42 | 0 | 0.0 | 0.0 | 0.00 | 0.01 | 0.00 | 85 | 1012.6 |
| 20260507051249 | 42 | 0 | 0.0 | 0.0 | 0.00 | 0.01 | 0.00 | 85 | 1012.7 |
| 20260507050050 | 42 | 0 | 0.0 | 0.0 | 0.00 | 0.02 | 0.00 | 84 | 1012.9 |
| 20260507044849 | 42 | 0 | 0.0 | 0.0 | 0.00 | 0.02 | 0.00 | 85 | 1012.7 |
| 20260507043650 | 42 | 0 | 0.0 | 0.0 | 0.00 | 0.02 | 0.00 | 85 | 1012.8 |
| 20260507042450 | 42 | 0 | 0.0 | 0.0 | 0.00 | 0.02 | 0.00 | 83 | 1012.7 |
| 20260507040049 | 42 | 0 | 0.0 | 0.0 | 0.00 | 0.02 | 0.00 | 83 | 1012.8 |
| 20260507034849 | 42 | 0 | 0.0 | 0.0 | 0.00 | 0.02 | 0.00 | 82 | 1012.9 |
| 20260507033649 | 42 | 0 | 0.0 | 0.0 | 0.00 | 0.02 | 0.02 | 81 | 1013.0 |
| 20260507032449 | 42 | 0 | 0.0 | 0.0 | 0.00 | 0.02 | 0.02 | 81 | 1013.0 |
| 20260507031249 | 43 | 0 | 0.0 | 0.0 | 0.00 | 0.02 | 0.02 | 80 | 1012.8 |
| 20260507030050 | 43 | 0 | 0.0 | 0.0 | 0.00 | 0.02 | 0.02 | 78 | 1013.0 |
| 20260507024850 | 43 | 0 | 0.0 | 0.0 | 0.00 | 0.02 | 0.02 | 76 | 1012.9 |
| 20260507023649 | 43 | 0 | 0.0 | 0.0 | 0.00 | 0.02 | 0.02 | 76 | 1013.0 |